หน้าหลัก
METAR-TAF:

METAR-TAF

ท่าอากาศยาน :

Pagosa Springs, โคโลราโด, สหรัฐอเมริกา

ละติจูด: 37-17-17N, ลองจิจูด: 107-03-18W, ความสูง: 2334 ม.

การสังเกตสภาพอากาศปัจจุบัน

รายงานได้ทำขึ้นเมื่อ 28 นาทีที่แล้ว ณ เวลา 15:35 UTC
ลมสงบ
อุณหภูมิ 21°C
ความชื้น 35%
ความกดอากาศ 1029 hPa
ทัศนวิสัย: 16.1 กม.
ท้องฟ้าแจ่มใส

METAR: KPSO 121535Z AUTO 00000KT 10SM CLR 21/05 A3039 RMK AO2 T02110052

เวลา: 10:03 (16:03 UTC)


TAF: หายไป

สังเกตการณ์สภาพอากาศและพยากรณ์อากาศของสนามบินมากกว่า 4000 แห่ง (รายงาน METAR และ TAF).

สถานีที่ดูได้จะแสดงไว้ด้วยจุดสีเหลืองและสีแดงบนแผนที่.

เลื่อนเมาส์ไปเหนือจุดเพื่อดูชื่อสถานี.

แล้วคลิกเพื่อดูสังเกตการณ์และการพยากรณ์สภาพอากาศ.

ในการเปลี่ยนแผนที่: คลิกที่ปุ่มสีเขียวที่มีกากบาทสีดำเพื่อซูมเข้า; ที่ปุ่มสีเขียวที่มีขีดเพื่อซูมออก; หรือที่ลูกศรสีเขียวเพื่อไปยังแผนที่ที่อยู่ติดกัน.


METAR-TAF: